Time;durP1;ratioP1;P1;durP2;ratioP2;P2;SDS_P1;SDS_P2;PMS_P1;PMS_P2;Temp;Humidity;BMP_temperature;BMP_pressure;BME280_temperature;BME280_humidity;BME280_pressure;Samples;Min_cycle;Max_cycle;Signal;HPM_P1;HPM_P2
2024/01/31 00:02:09;;;;;;;3.15;0.82;;;;;;;;;;4974082;28;20111;-67
2024/01/31 00:04:39;;;;;;;10.80;1.65;;;;;;;;;;4980476;28;20969;-67
2024/01/31 00:07:05;;;;;;;7.93;1.00;;;;;;;;;;4978645;28;20482;-67
2024/01/31 00:09:32;;;;;;;5.85;1.38;;;;;;;;;;4965634;28;20058;-67
2024/01/31 00:11:58;;;;;;;7.88;1.10;;;;;;;;;;4969448;28;20134;-67
2024/01/31 00:14:24;;;;;;;8.85;1.10;;;;;;;;;;4964538;28;20116;-67
2024/01/31 00:16:51;;;;;;;9.57;1.65;;;;;;;;;;4953143;28;20051;-67
2024/01/31 00:19:17;;;;;;;6.70;1.05;;;;;;;;;;4954651;28;20451;-67
2024/01/31 00:21:43;;;;;;;10.32;1.20;;;;;;;;;;4960338;28;20157;-67
2024/01/31 00:24:10;;;;;;;16.15;2.08;;;;;;;;;;4958449;28;20050;-67
2024/01/31 00:26:37;;;;;;;11.10;2.33;;;;;;;;;;4977555;28;20054;-67
2024/01/31 00:29:03;;;;;;;31.05;2.80;;;;;;;;;;4968663;28;20133;-67
2024/01/31 00:31:29;;;;;;;8.93;1.48;;;;;;;;;;4969634;28;20058;-67
2024/01/31 00:33:55;;;;;;;7.18;1.15;;;;;;;;;;4975106;28;20046;-67
2024/01/31 00:36:22;;;;;;;5.70;0.88;;;;;;;;;;4977599;28;20402;-67
2024/01/31 00:38:49;;;;;;;2.90;0.80;;;;;;;;;;4978593;28;20444;-67
2024/01/31 00:41:15;;;;;;;5.30;0.80;;;;;;;;;;4967725;28;20039;-67
2024/01/31 00:43:42;;;;;;;7.00;0.70;;;;;;;;;;4976683;28;20042;-67
2024/01/31 00:46:08;;;;;;;5.00;0.85;;;;;;;;;;4978471;28;20051;-67
2024/01/31 00:48:34;;;;;;;5.93;0.73;;;;;;;;;;4975577;28;20039;-67
2024/01/31 00:51:00;;;;;;;4.25;0.80;;;;;;;;;;4975987;28;20062;-67
2024/01/31 00:53:27;;;;;;;6.35;1.13;;;;;;;;;;4979202;28;20046;-67
2024/01/31 00:55:53;;;;;;;9.30;1.02;;;;;;;;;;4977798;28;20049;-67
2024/01/31 00:58:19;;;;;;;7.05;0.70;;;;;;;;;;4981098;28;20139;-67
2024/01/31 01:00:45;;;;;;;7.03;1.77;;;;;;;;;;4975782;28;20051;-66
2024/01/31 01:03:11;;;;;;;9.07;1.20;;;;;;;;;;4973458;28;20070;-67
2024/01/31 01:05:38;;;;;;;9.15;1.65;;;;;;;;;;4985530;28;20527;-67
2024/01/31 01:08:04;;;;;;;6.43;1.58;;;;;;;;;;4973698;28;20043;-67
2024/01/31 01:10:30;;;;;;;7.43;1.02;;;;;;;;;;4969028;28;20068;-67
2024/01/31 01:12:58;;;;;;;8.43;1.27;;;;;;;;;;4981093;28;20051;-67
2024/01/31 01:15:25;;;;;;;8.00;0.80;;;;;;;;;;4977783;28;20475;-67
2024/01/31 01:17:51;;;;;;;5.82;0.80;;;;;;;;;;4978742;28;20058;-67
2024/01/31 01:20:18;;;;;;;6.32;1.13;;;;;;;;;;4973886;28;20678;-66
2024/01/31 01:22:45;;;;;;;9.10;0.90;;;;;;;;;;4974491;28;20074;-67
2024/01/31 01:25:11;;;;;;;5.20;1.00;;;;;;;;;;4975478;28;20566;-67
2024/01/31 01:27:37;;;;;;;8.60;0.98;;;;;;;;;;4980541;28;20038;-67
2024/01/31 01:30:07;;;;;;;8.35;1.02;;;;;;;;;;4981349;28;20046;-67
2024/01/31 01:32:33;;;;;;;9.35;1.00;;;;;;;;;;4975780;28;20086;-67
2024/01/31 01:34:59;;;;;;;8.27;1.10;;;;;;;;;;4972985;28;20052;-67
2024/01/31 01:37:25;;;;;;;10.77;1.08;;;;;;;;;;4975121;28;20042;-67
2024/01/31 01:39:51;;;;;;;5.45;1.55;;;;;;;;;;4982905;28;20125;-67
2024/01/31 01:42:17;;;;;;;5.97;0.82;;;;;;;;;;4982779;28;20038;-67
2024/01/31 01:44:45;;;;;;;5.60;1.10;;;;;;;;;;4979775;28;20568;-67
2024/01/31 01:47:13;;;;;;;11.90;1.33;;;;;;;;;;4979636;28;20046;-67
2024/01/31 01:49:39;;;;;;;10.10;1.55;;;;;;;;;;4978153;28;20095;-67
2024/01/31 01:52:06;;;;;;;5.00;1.30;;;;;;;;;;4979775;28;20046;-67
2024/01/31 01:54:33;;;;;;;10.27;1.13;;;;;;;;;;4966438;28;20074;-67
2024/01/31 01:56:59;;;;;;;7.35;1.20;;;;;;;;;;4974833;28;20065;-67
2024/01/31 01:59:25;;;;;;;5.65;1.73;;;;;;;;;;4978524;28;20082;-67
2024/01/31 02:01:52;;;;;;;5.25;1.85;;;;;;;;;;4978033;28;20047;-67
2024/01/31 02:04:18;;;;;;;12.50;1.20;;;;;;;;;;4979653;28;20043;-66
2024/01/31 02:06:45;;;;;;;9.32;1.08;;;;;;;;;;4971016;28;20089;-67
2024/01/31 02:09:11;;;;;;;12.38;1.65;;;;;;;;;;4980548;28;20038;-67
2024/01/31 02:11:37;;;;;;;6.32;1.20;;;;;;;;;;4991372;28;20512;-67
2024/01/31 02:14:04;;;;;;;6.85;1.35;;;;;;;;;;4971152;28;20406;-67
2024/01/31 02:16:30;;;;;;;12.77;2.47;;;;;;;;;;4989102;28;20140;-67
2024/01/31 02:18:56;;;;;;;11.05;1.05;;;;;;;;;;4980834;28;20074;-67
2024/01/31 02:21:24;;;;;;;8.60;1.05;;;;;;;;;;4974784;28;20499;-67
2024/01/31 02:23:50;;;;;;;10.88;2.08;;;;;;;;;;4974608;28;20038;-67
2024/01/31 02:26:16;;;;;;;7.25;1.00;;;;;;;;;;4984137;28;21106;-67
2024/01/31 02:28:43;;;;;;;11.00;1.17;;;;;;;;;;4984221;28;20133;-67
2024/01/31 02:31:09;;;;;;;10.32;1.25;;;;;;;;;;4975856;28;20062;-67
2024/01/31 02:33:35;;;;;;;7.13;1.30;;;;;;;;;;4980734;28;20514;-67
2024/01/31 02:36:02;;;;;;;10.35;2.20;;;;;;;;;;4974897;28;20053;-67
2024/01/31 02:38:28;;;;;;;7.07;2.13;;;;;;;;;;4991616;28;20489;-67
2024/01/31 02:40:54;;;;;;;12.32;1.58;;;;;;;;;;4982209;28;20191;-68
2024/01/31 02:43:20;;;;;;;10.07;1.25;;;;;;;;;;4974785;28;20569;-67
2024/01/31 02:45:46;;;;;;;9.20;1.58;;;;;;;;;;4985643;28;20058;-67
2024/01/31 02:48:13;;;;;;;13.55;3.03;;;;;;;;;;4992106;28;20046;-67
2024/01/31 02:50:39;;;;;;;10.10;2.15;;;;;;;;;;4991382;28;20053;-67
2024/01/31 02:53:06;;;;;;;10.48;1.30;;;;;;;;;;4992815;28;20100;-67
2024/01/31 02:55:32;;;;;;;7.93;1.20;;;;;;;;;;4986750;28;20050;-67
2024/01/31 02:57:58;;;;;;;12.52;1.27;;;;;;;;;;4986359;28;20442;-67
2024/01/31 03:00:24;;;;;;;6.65;1.20;;;;;;;;;;4986359;28;20113;-67
2024/01/31 03:02:50;;;;;;;7.30;1.25;;;;;;;;;;4985521;28;20046;-67
2024/01/31 03:05:17;;;;;;;7.22;1.40;;;;;;;;;;4980125;28;20048;-67
2024/01/31 03:07:43;;;;;;;8.98;1.40;;;;;;;;;;4974327;28;20476;-67
2024/01/31 03:10:09;;;;;;;5.93;1.10;;;;;;;;;;4975440;28;20104;-67
2024/01/31 03:12:35;;;;;;;6.45;1.00;;;;;;;;;;4986161;28;20061;-67
2024/01/31 03:15:02;;;;;;;5.65;1.00;;;;;;;;;;4982322;28;20084;-67
2024/01/31 03:17:34;;;;;;;9.52;1.58;;;;;;;;;;4979984;28;20147;-67
2024/01/31 03:20:01;;;;;;;6.72;1.20;;;;;;;;;;4990245;28;20485;-67
2024/01/31 03:22:27;;;;;;;8.50;1.38;;;;;;;;;;4988852;28;20046;-67
2024/01/31 03:24:53;;;;;;;8.02;1.05;;;;;;;;;;4982166;28;20045;-67
2024/01/31 03:27:19;;;;;;;5.30;1.00;;;;;;;;;;4976158;28;20133;-67
2024/01/31 03:29:45;;;;;;;5.93;0.90;;;;;;;;;;4978959;28;20451;-67
2024/01/31 03:32:11;;;;;;;8.68;1.20;;;;;;;;;;4985113;28;20051;-67
2024/01/31 03:34:38;;;;;;;8.35;0.73;;;;;;;;;;4986004;28;20108;-67
2024/01/31 03:37:05;;;;;;;4.43;0.73;;;;;;;;;;4991866;28;20039;-67
2024/01/31 03:39:32;;;;;;;8.50;1.30;;;;;;;;;;4972762;28;20089;-67
2024/01/31 03:41:59;;;;;;;11.18;1.23;;;;;;;;;;4974384;28;20038;-67
2024/01/31 03:44:25;;;;;;;3.10;1.08;;;;;;;;;;4977027;28;20054;-67
2024/01/31 03:46:51;;;;;;;10.80;1.98;;;;;;;;;;4983919;28;20042;-68
2024/01/31 03:49:17;;;;;;;7.85;1.10;;;;;;;;;;4990199;28;20121;-67
2024/01/31 03:51:44;;;;;;;9.63;1.10;;;;;;;;;;4993606;28;20046;-67
2024/01/31 03:54:10;;;;;;;12.60;1.38;;;;;;;;;;4978225;28;21524;-68
2024/01/31 03:56:36;;;;;;;6.25;1.08;;;;;;;;;;4974049;28;20117;-67
2024/01/31 03:59:03;;;;;;;7.97;0.90;;;;;;;;;;4970208;28;21355;-67
2024/01/31 04:01:30;;;;;;;10.48;1.40;;;;;;;;;;4980290;28;20224;-67
2024/01/31 04:03:56;;;;;;;5.40;1.30;;;;;;;;;;4975407;28;20188;-67
2024/01/31 04:06:22;;;;;;;4.43;0.93;;;;;;;;;;4982358;28;20434;-67
2024/01/31 04:08:49;;;;;;;7.18;0.80;;;;;;;;;;4975896;28;20104;-67
2024/01/31 04:11:15;;;;;;;5.10;0.90;;;;;;;;;;4979878;28;20774;-67
2024/01/31 04:13:44;;;;;;;7.40;1.23;;;;;;;;;;4968478;28;20094;-67
2024/01/31 04:16:14;;;;;;;5.35;1.17;;;;;;;;;;4980752;28;20150;-67
2024/01/31 04:18:41;;;;;;;8.98;1.70;;;;;;;;;;4971148;28;20039;-67
2024/01/31 04:21:07;;;;;;;8.48;1.45;;;;;;;;;;4980620;28;20054;-67
2024/01/31 04:23:33;;;;;;;7.72;0.95;;;;;;;;;;4982566;28;20042;-67
2024/01/31 04:26:01;;;;;;;4.72;0.88;;;;;;;;;;4973212;28;20035;-67
2024/01/31 04:28:28;;;;;;;9.23;1.63;;;;;;;;;;4969863;28;20371;-68
2024/01/31 04:30:54;;;;;;;6.78;1.42;;;;;;;;;;4971336;28;20038;-67
2024/01/31 04:33:22;;;;;;;7.65;1.20;;;;;;;;;;4982477;28;20041;-67
2024/01/31 04:35:48;;;;;;;11.68;1.48;;;;;;;;;;4989753;28;20054;-67
2024/01/31 04:38:15;;;;;;;7.88;1.40;;;;;;;;;;4991833;28;20119;-67
2024/01/31 04:40:41;;;;;;;4.65;1.00;;;;;;;;;;4991143;28;20355;-67
2024/01/31 04:43:07;;;;;;;10.07;1.13;;;;;;;;;;4990918;28;20104;-67
2024/01/31 04:45:33;;;;;;;6.82;1.15;;;;;;;;;;4989499;28;20066;-67
2024/01/31 04:47:59;;;;;;;10.90;1.60;;;;;;;;;;4984495;28;20375;-67
2024/01/31 04:50:25;;;;;;;8.48;1.40;;;;;;;;;;4988848;28;20039;-67
2024/01/31 04:52:52;;;;;;;10.70;1.90;;;;;;;;;;4960811;28;20568;-67
2024/01/31 04:55:18;;;;;;;9.77;1.30;;;;;;;;;;5004672;28;20069;-67
2024/01/31 04:57:45;;;;;;;10.85;1.30;;;;;;;;;;4986242;28;20522;-67
2024/01/31 05:00:13;;;;;;;9.73;1.35;;;;;;;;;;4979212;28;20045;-67
2024/01/31 05:02:40;;;;;;;9.38;1.40;;;;;;;;;;4980351;28;20136;-67
2024/01/31 05:05:06;;;;;;;13.52;2.55;;;;;;;;;;4984790;28;20398;-67
2024/01/31 05:07:32;;;;;;;6.25;1.15;;;;;;;;;;4992559;28;20698;-67
2024/01/31 05:09:58;;;;;;;7.88;1.40;;;;;;;;;;4995704;28;20128;-68
2024/01/31 05:12:25;;;;;;;11.80;1.85;;;;;;;;;;4988378;28;20054;-67
2024/01/31 05:14:51;;;;;;;8.35;2.05;;;;;;;;;;4995294;28;20050;-67
2024/01/31 05:17:17;;;;;;;13.48;1.70;;;;;;;;;;4985313;28;20149;-67
2024/01/31 05:19:43;;;;;;;8.05;1.70;;;;;;;;;;5014852;28;20080;-67
2024/01/31 05:22:09;;;;;;;9.02;1.70;;;;;;;;;;5000273;28;20124;-67
2024/01/31 05:24:35;;;;;;;10.82;1.60;;;;;;;;;;4988706;28;20553;-67
2024/01/31 05:27:03;;;;;;;9.63;2.28;;;;;;;;;;5002486;28;20034;-67
2024/01/31 05:29:30;;;;;;;13.05;1.90;;;;;;;;;;4995787;28;20060;-67
2024/01/31 05:31:56;;;;;;;9.95;1.23;;;;;;;;;;4979261;28;20061;-67
2024/01/31 05:34:22;;;;;;;8.77;1.55;;;;;;;;;;4976393;28;21359;-67
2024/01/31 05:36:49;;;;;;;15.30;2.03;;;;;;;;;;4996676;28;20053;-67
2024/01/31 05:39:15;;;;;;;12.35;1.33;;;;;;;;;;4995289;28;20066;-67
2024/01/31 05:41:43;;;;;;;5.45;0.98;;;;;;;;;;4972181;28;20049;-67
2024/01/31 05:44:10;;;;;;;9.13;2.45;;;;;;;;;;4996546;28;20108;-65
2024/01/31 05:46:36;;;;;;;9.52;1.17;;;;;;;;;;4985229;28;20226;-67
2024/01/31 05:49:02;;;;;;;11.88;1.35;;;;;;;;;;4976755;28;20046;-67
2024/01/31 05:51:29;;;;;;;12.85;1.30;;;;;;;;;;4983512;28;20125;-67
2024/01/31 05:53:55;;;;;;;10.48;1.40;;;;;;;;;;5002587;28;20046;-67
2024/01/31 05:56:22;;;;;;;8.23;1.40;;;;;;;;;;5000147;28;20034;-68
2024/01/31 05:58:48;;;;;;;8.35;1.67;;;;;;;;;;4986551;28;20050;-67
2024/01/31 06:01:14;;;;;;;13.18;1.90;;;;;;;;;;5000090;28;20074;-67
2024/01/31 06:03:41;;;;;;;9.98;2.60;;;;;;;;;;4999292;28;20049;-67
2024/01/31 06:06:07;;;;;;;12.70;1.90;;;;;;;;;;4992127;28;20054;-67
2024/01/31 06:08:33;;;;;;;5.57;1.23;;;;;;;;;;5010543;28;20083;-67
2024/01/31 06:11:03;;;;;;;9.52;1.48;;;;;;;;;;5002520;28;20053;-67
2024/01/31 06:13:29;;;;;;;9.85;1.88;;;;;;;;;;4975149;28;20533;-67
2024/01/31 06:15:55;;;;;;;6.43;1.30;;;;;;;;;;4993688;28;20046;-67
2024/01/31 06:18:22;;;;;;;9.70;1.73;;;;;;;;;;5020097;28;20037;-67
2024/01/31 06:20:50;;;;;;;15.18;1.73;;;;;;;;;;5015617;28;20046;-67
2024/01/31 06:23:16;;;;;;;10.80;2.03;;;;;;;;;;5005973;28;20046;-67
2024/01/31 06:25:43;;;;;;;11.68;1.75;;;;;;;;;;4981544;28;20088;-67
2024/01/31 06:28:09;;;;;;;16.80;2.17;;;;;;;;;;4991543;28;20085;-67
2024/01/31 06:30:44;;;;;;;10.65;1.80;;;;;;;;;;5003095;28;20096;-67
2024/01/31 06:33:10;;;;;;;13.65;1.92;;;;;;;;;;4988858;28;20045;-67
2024/01/31 06:35:38;;;;;;;8.02;1.73;;;;;;;;;;4999128;28;20042;-67
2024/01/31 06:38:05;;;;;;;9.13;1.42;;;;;;;;;;4983748;28;20074;-67
2024/01/31 06:40:31;;;;;;;11.05;1.60;;;;;;;;;;4995051;28;20061;-67
2024/01/31 06:42:59;;;;;;;13.27;1.58;;;;;;;;;;4987854;28;20053;-69
2024/01/31 06:45:25;;;;;;;9.35;2.05;;;;;;;;;;4973222;28;20045;-68
2024/01/31 06:47:52;;;;;;;12.48;1.98;;;;;;;;;;5007376;28;20490;-68
2024/01/31 06:50:18;;;;;;;13.70;1.88;;;;;;;;;;5001539;28;20609;-69
2024/01/31 06:52:44;;;;;;;13.18;2.03;;;;;;;;;;5000104;28;20038;-69
2024/01/31 06:55:11;;;;;;;5.30;1.30;;;;;;;;;;4993673;28;20445;-68
2024/01/31 06:57:37;;;;;;;12.65;1.83;;;;;;;;;;4988971;28;20035;-68
2024/01/31 07:00:05;;;;;;;12.05;1.58;;;;;;;;;;4989645;28;20065;-68
2024/01/31 07:02:31;;;;;;;10.40;1.63;;;;;;;;;;5008801;28;20042;-68
2024/01/31 07:04:57;;;;;;;8.40;1.77;;;;;;;;;;5004399;28;20049;-68
2024/01/31 07:07:23;;;;;;;6.95;1.52;;;;;;;;;;5002919;28;20160;-68
2024/01/31 07:09:49;;;;;;;9.40;1.42;;;;;;;;;;5018351;28;20051;-68
2024/01/31 07:12:16;;;;;;;8.40;2.08;;;;;;;;;;5023963;28;20046;-68
2024/01/31 07:14:43;;;;;;;9.18;1.83;;;;;;;;;;4998755;28;20123;-68
2024/01/31 07:17:09;;;;;;;9.38;1.77;;;;;;;;;;5006865;28;20045;-70
2024/01/31 07:19:36;;;;;;;5.97;2.17;;;;;;;;;;4994425;28;20053;-69
2024/01/31 07:22:02;;;;;;;8.02;2.20;;;;;;;;;;4982173;28;20042;-68
2024/01/31 07:24:28;;;;;;;10.73;2.60;;;;;;;;;;4998884;28;20096;-68
2024/01/31 07:26:54;;;;;;;5.57;2.80;;;;;;;;;;5014440;28;20430;-68
2024/01/31 07:29:21;;;;;;;18.88;3.20;;;;;;;;;;4998266;28;20049;-68
2024/01/31 07:31:47;;;;;;;8.65;3.22;;;;;;;;;;5004113;28;20144;-68
2024/01/31 07:34:13;;;;;;;10.00;2.72;;;;;;;;;;5002840;28;20663;-68
2024/01/31 07:36:39;;;;;;;7.72;2.10;;;;;;;;;;5002329;28;20045;-68
2024/01/31 07:39:05;;;;;;;10.98;2.80;;;;;;;;;;5007521;28;20377;-67
2024/01/31 07:41:33;;;;;;;12.40;2.90;;;;;;;;;;4999617;28;20095;-68
2024/01/31 07:43:59;;;;;;;8.73;2.35;;;;;;;;;;4991040;28;20501;-67
2024/01/31 07:46:25;;;;;;;8.73;3.05;;;;;;;;;;4982016;28;20049;-68
2024/01/31 07:48:51;;;;;;;6.60;2.53;;;;;;;;;;4991202;28;20505;-68
2024/01/31 07:51:19;;;;;;;11.38;2.50;;;;;;;;;;4988735;28;20054;-68
2024/01/31 07:53:45;;;;;;;13.35;2.92;;;;;;;;;;4994868;28;20120;-67
2024/01/31 07:56:11;;;;;;;11.50;3.50;;;;;;;;;;4990950;28;20076;-67
2024/01/31 07:58:37;;;;;;;8.00;3.38;;;;;;;;;;4982205;28;20038;-67
2024/01/31 08:01:04;;;;;;;15.48;5.10;;;;;;;;;;5000489;28;20046;-67
2024/01/31 08:03:30;;;;;;;10.27;3.90;;;;;;;;;;4989385;28;20053;-66
2024/01/31 08:05:59;;;;;;;6.30;3.85;;;;;;;;;;4976570;28;20054;-67
2024/01/31 08:08:25;;;;;;;9.30;4.03;;;;;;;;;;5003690;28;20045;-67
2024/01/31 08:10:52;;;;;;;9.82;4.10;;;;;;;;;;4986665;28;20046;-67
2024/01/31 08:13:18;;;;;;;9.07;4.10;;;;;;;;;;4989147;28;20056;-67
2024/01/31 08:15:45;;;;;;;11.18;4.57;;;;;;;;;;4990255;28;20046;-67
2024/01/31 08:18:11;;;;;;;9.27;5.53;;;;;;;;;;4991927;28;20045;-67
2024/01/31 08:20:37;;;;;;;7.85;4.30;;;;;;;;;;4967412;28;20541;-68
2024/01/31 08:23:03;;;;;;;11.23;5.35;;;;;;;;;;4987996;28;20088;-67
2024/01/31 08:25:29;;;;;;;10.27;5.50;;;;;;;;;;4979757;28;20049;-67
2024/01/31 08:27:55;;;;;;;9.07;5.30;;;;;;;;;;4978690;28;20046;-67
2024/01/31 08:30:22;;;;;;;11.15;5.50;;;;;;;;;;4988170;28;20046;-67
2024/01/31 08:32:48;;;;;;;15.40;6.20;;;;;;;;;;5000042;28;20052;-67
2024/01/31 08:35:14;;;;;;;9.73;5.25;;;;;;;;;;4987448;28;20042;-67
2024/01/31 08:37:40;;;;;;;10.65;6.25;;;;;;;;;;4999583;28;20649;-67
2024/01/31 08:40:10;;;;;;;12.43;6.18;;;;;;;;;;4995199;28;20096;-66
2024/01/31 08:42:38;;;;;;;12.90;6.32;;;;;;;;;;4989515;28;20455;-67
2024/01/31 08:45:06;;;;;;;12.63;7.28;;;;;;;;;;4991563;28;20057;-67
2024/01/31 08:47:32;;;;;;;9.70;6.10;;;;;;;;;;4999869;28;20084;-66
2024/01/31 08:49:59;;;;;;;12.73;7.28;;;;;;;;;;5005942;28;20473;-67
2024/01/31 08:52:25;;;;;;;13.30;7.55;;;;;;;;;;5024220;28;20037;-67
2024/01/31 08:54:51;;;;;;;15.68;7.38;;;;;;;;;;4991365;28;20116;-67
2024/01/31 08:57:17;;;;;;;10.40;7.40;;;;;;;;;;4961254;28;20532;-67
2024/01/31 08:59:44;;;;;;;11.43;7.68;;;;;;;;;;4985059;28;20057;-67
2024/01/31 09:02:10;;;;;;;13.80;7.95;;;;;;;;;;4982487;28;20484;-68
2024/01/31 09:04:36;;;;;;;11.45;7.75;;;;;;;;;;5004578;28;20091;-67
2024/01/31 09:07:02;;;;;;;13.43;7.55;;;;;;;;;;4991881;28;20041;-67
2024/01/31 09:09:30;;;;;;;12.93;8.23;;;;;;;;;;4990284;28;20082;-67
2024/01/31 09:11:56;;;;;;;12.68;8.02;;;;;;;;;;5009056;28;20502;-67
2024/01/31 09:14:22;;;;;;;13.13;8.57;;;;;;;;;;4987662;28;20085;-66
2024/01/31 09:16:48;;;;;;;12.98;7.93;;;;;;;;;;4991642;28;20577;-66
2024/01/31 09:19:14;;;;;;;14.68;8.93;;;;;;;;;;5013448;28;20125;-67
2024/01/31 09:21:41;;;;;;;12.07;8.43;;;;;;;;;;5005486;28;20045;-67
2024/01/31 09:24:09;;;;;;;14.10;9.02;;;;;;;;;;5005272;28;20042;-66
2024/01/31 09:26:35;;;;;;;18.70;10.73;;;;;;;;;;5009820;28;20077;-66
2024/01/31 09:29:01;;;;;;;14.90;9.63;;;;;;;;;;4988966;28;20062;-66
2024/01/31 09:31:28;;;;;;;15.45;9.60;;;;;;;;;;4985758;28;20525;-66
2024/01/31 09:33:55;;;;;;;12.60;8.98;;;;;;;;;;4993763;28;20050;-66
2024/01/31 09:36:22;;;;;;;16.05;9.90;;;;;;;;;;4993299;28;20125;-66
2024/01/31 09:38:49;;;;;;;15.60;9.35;;;;;;;;;;4994015;28;20490;-66
2024/01/31 09:41:16;;;;;;;14.25;9.77;;;;;;;;;;4989513;28;20042;-65
2024/01/31 09:43:43;;;;;;;13.48;9.25;;;;;;;;;;4981237;28;20498;-66
2024/01/31 09:46:09;;;;;;;14.45;9.00;;;;;;;;;;4981475;28;20056;-66
2024/01/31 09:48:37;;;;;;;16.50;10.57;;;;;;;;;;4987689;28;20065;-66
2024/01/31 09:51:03;;;;;;;14.70;9.27;;;;;;;;;;4986362;28;20054;-66
2024/01/31 09:53:33;;;;;;;16.10;10.35;;;;;;;;;;5001999;28;20577;-66
2024/01/31 09:56:00;;;;;;;14.82;9.88;;;;;;;;;;4989252;28;20049;-66
2024/01/31 09:58:26;;;;;;;14.70;10.00;;;;;;;;;;4995976;28;20084;-66
2024/01/31 10:00:52;;;;;;;16.60;11.25;;;;;;;;;;4980514;28;20050;-66
2024/01/31 10:03:19;;;;;;;14.27;9.02;;;;;;;;;;4984888;28;20075;-63
2024/01/31 10:05:45;;;;;;;13.90;9.20;;;;;;;;;;4998149;28;20593;-62
2024/01/31 10:08:11;;;;;;;13.38;9.00;;;;;;;;;;4980903;28;20338;-62
2024/01/31 10:10:38;;;;;;;15.38;9.15;;;;;;;;;;5000164;28;20038;-64
2024/01/31 10:13:07;;;;;;;13.30;8.98;;;;;;;;;;4990724;28;20414;-64
2024/01/31 10:15:33;;;;;;;13.65;9.02;;;;;;;;;;4998114;28;20128;-66
2024/01/31 10:17:59;;;;;;;13.70;9.57;;;;;;;;;;4986131;28;21163;-65
2024/01/31 10:20:25;;;;;;;12.80;9.15;;;;;;;;;;4978942;28;20133;-65
2024/01/31 10:22:52;;;;;;;11.80;8.20;;;;;;;;;;4995609;28;20069;-66
2024/01/31 10:25:18;;;;;;;14.45;9.07;;;;;;;;;;4975083;28;20046;-66
2024/01/31 10:27:46;;;;;;;11.95;8.38;;;;;;;;;;4989026;28;20422;-66
2024/01/31 10:30:13;;;;;;;14.02;8.90;;;;;;;;;;4988784;28;20061;-68
2024/01/31 10:32:41;;;;;;;13.40;9.32;;;;;;;;;;4971489;28;20122;-66
2024/01/31 10:35:08;;;;;;;13.65;8.82;;;;;;;;;;4976020;28;20134;-64
2024/01/31 10:37:35;;;;;;;11.82;8.48;;;;;;;;;;4976385;28;20050;-64
2024/01/31 10:40:04;;;;;;;12.68;8.90;;;;;;;;;;4974186;28;20048;-66
2024/01/31 10:42:30;;;;;;;12.98;8.93;;;;;;;;;;4976552;28;20132;-66
2024/01/31 10:44:57;;;;;;;12.38;8.90;;;;;;;;;;4979845;28;20038;-67
2024/01/31 10:47:23;;;;;;;13.57;9.13;;;;;;;;;;4992754;28;20058;-66
2024/01/31 10:49:49;;;;;;;16.35;9.30;;;;;;;;;;4983943;28;20994;-67
2024/01/31 10:52:17;;;;;;;14.57;8.23;;;;;;;;;;4988113;28;20058;-66
2024/01/31 10:54:47;;;;;;;13.90;8.35;;;;;;;;;;4979110;28;20051;-65
2024/01/31 10:57:14;;;;;;;13.82;8.32;;;;;;;;;;4978616;28;20053;-67
2024/01/31 10:59:40;;;;;;;12.57;7.75;;;;;;;;;;4983659;28;20042;-66
2024/01/31 11:02:13;;;;;;;11.15;7.75;;;;;;;;;;4985499;28;21580;-65
2024/01/31 11:04:39;;;;;;;11.63;7.67;;;;;;;;;;4981034;28;20043;-66
2024/01/31 11:07:06;;;;;;;12.40;7.97;;;;;;;;;;4987979;28;20232;-67
2024/01/31 11:09:32;;;;;;;11.98;7.75;;;;;;;;;;4982330;28;20041;-65
2024/01/31 11:12:05;;;;;;;12.18;7.30;;;;;;;;;;4980523;28;20043;-65
2024/01/31 11:14:31;;;;;;;10.00;6.75;;;;;;;;;;4978181;28;20406;-65
2024/01/31 11:17:06;;;;;;;11.45;7.55;;;;;;;;;;4985902;28;20475;-66
2024/01/31 11:19:33;;;;;;;12.23;7.10;;;;;;;;;;4989140;28;20054;-66
2024/01/31 11:22:00;;;;;;;10.95;6.63;;;;;;;;;;4980266;28;20610;-65
2024/01/31 11:24:26;;;;;;;14.45;6.35;;;;;;;;;;4986126;28;20038;-65
2024/01/31 11:26:53;;;;;;;11.05;6.55;;;;;;;;;;4985490;28;20038;-64
2024/01/31 11:29:19;;;;;;;9.68;6.20;;;;;;;;;;4985431;28;20046;-66
2024/01/31 11:31:46;;;;;;;9.38;5.82;;;;;;;;;;4993568;28;20092;-65
2024/01/31 11:34:13;;;;;;;9.68;5.95;;;;;;;;;;5005807;28;20059;-66
2024/01/31 11:36:39;;;;;;;11.35;6.53;;;;;;;;;;4989132;28;20100;-66
2024/01/31 11:39:07;;;;;;;12.43;6.80;;;;;;;;;;5003713;28;20464;-66
2024/01/31 11:41:36;;;;;;;9.57;5.65;;;;;;;;;;4985669;28;20977;-65
2024/01/31 11:44:03;;;;;;;10.15;5.70;;;;;;;;;;4987956;28;20124;-65
2024/01/31 11:46:29;;;;;;;11.38;5.72;;;;;;;;;;4988059;28;20056;-65
2024/01/31 11:48:55;;;;;;;11.00;5.72;;;;;;;;;;5004124;28;20057;-65
2024/01/31 11:51:22;;;;;;;9.05;5.68;;;;;;;;;;4986879;28;20537;-66
2024/01/31 11:53:48;;;;;;;11.68;6.63;;;;;;;;;;4989824;28;20106;-66
2024/01/31 11:56:14;;;;;;;11.68;6.20;;;;;;;;;;4987050;28;20421;-65
2024/01/31 11:58:40;;;;;;;10.38;6.00;;;;;;;;;;5003326;28;20033;-66
2024/01/31 12:01:06;;;;;;;9.85;5.70;;;;;;;;;;4986846;28;20050;-66
2024/01/31 12:03:33;;;;;;;7.72;5.50;;;;;;;;;;4986536;28;20430;-66
2024/01/31 12:05:59;;;;;;;10.40;5.82;;;;;;;;;;4986563;28;20125;-66
2024/01/31 12:08:26;;;;;;;8.85;5.85;;;;;;;;;;4985871;28;20054;-66
2024/01/31 12:10:54;;;;;;;7.53;5.45;;;;;;;;;;4984722;28;20052;-65
2024/01/31 12:13:21;;;;;;;11.00;5.30;;;;;;;;;;4985938;28;20037;-66
2024/01/31 12:15:47;;;;;;;12.82;6.15;;;;;;;;;;4985169;28;20048;-66
2024/01/31 12:18:15;;;;;;;7.50;4.70;;;;;;;;;;4987692;28;20050;-66
2024/01/31 12:20:41;;;;;;;8.23;5.60;;;;;;;;;;4985188;28;20394;-66
2024/01/31 12:23:07;;;;;;;10.40;5.63;;;;;;;;;;4986645;28;20046;-66
2024/01/31 12:25:34;;;;;;;7.93;5.10;;;;;;;;;;4997247;28;20502;-66
2024/01/31 12:28:03;;;;;;;8.68;5.30;;;;;;;;;;4997143;28;20054;-66
2024/01/31 12:30:29;;;;;;;10.80;5.72;;;;;;;;;;4996679;28;20048;-66
2024/01/31 12:32:55;;;;;;;8.27;5.68;;;;;;;;;;4994929;28;20065;-65
2024/01/31 12:35:22;;;;;;;9.82;5.80;;;;;;;;;;4982455;28;20089;-65
2024/01/31 12:37:49;;;;;;;10.48;6.47;;;;;;;;;;4991635;28;20092;-65
2024/01/31 12:40:15;;;;;;;10.13;6.10;;;;;;;;;;4996177;28;20045;-66
2024/01/31 12:42:41;;;;;;;8.00;5.70;;;;;;;;;;4993680;28;20398;-66
2024/01/31 12:45:08;;;;;;;10.02;6.45;;;;;;;;;;4984762;28;20073;-65
2024/01/31 12:47:34;;;;;;;8.55;5.45;;;;;;;;;;4979204;28;20346;-66
2024/01/31 12:50:00;;;;;;;10.13;5.47;;;;;;;;;;4993207;28;20133;-65
2024/01/31 12:52:26;;;;;;;12.63;6.32;;;;;;;;;;4988864;28;20054;-66
2024/01/31 12:54:53;;;;;;;13.45;6.70;;;;;;;;;;4994185;28;20043;-66
2024/01/31 12:57:19;;;;;;;11.65;7.50;;;;;;;;;;4983892;28;20046;-65
2024/01/31 12:59:46;;;;;;;11.25;7.00;;;;;;;;;;4990293;28;20070;-66
2024/01/31 13:02:13;;;;;;;10.57;7.38;;;;;;;;;;4981253;28;20049;-65
2024/01/31 13:04:39;;;;;;;13.35;8.10;;;;;;;;;;4982979;28;20407;-66
2024/01/31 13:07:06;;;;;;;13.80;8.52;;;;;;;;;;4975329;28;20038;-66
2024/01/31 13:09:32;;;;;;;11.65;8.18;;;;;;;;;;4986655;28;20097;-65
2024/01/31 13:11:58;;;;;;;13.15;8.35;;;;;;;;;;4995553;28;20092;-65
2024/01/31 13:14:24;;;;;;;14.57;8.63;;;;;;;;;;4985765;28;20046;-65
2024/01/31 13:16:50;;;;;;;12.70;8.60;;;;;;;;;;5000563;28;20145;-66
2024/01/31 13:19:20;;;;;;;14.10;8.93;;;;;;;;;;5002756;28;20046;-65
2024/01/31 13:21:49;;;;;;;13.77;8.75;;;;;;;;;;4998572;28;20061;-65
2024/01/31 13:24:17;;;;;;;15.88;9.32;;;;;;;;;;4986551;28;20042;-66
2024/01/31 13:26:43;;;;;;;13.48;8.40;;;;;;;;;;4987480;28;20077;-65
2024/01/31 13:29:09;;;;;;;12.13;8.23;;;;;;;;;;4989100;28;20042;-65
2024/01/31 13:31:35;;;;;;;15.02;9.07;;;;;;;;;;4981292;28;20058;-66
2024/01/31 13:34:02;;;;;;;15.00;8.88;;;;;;;;;;4975396;28;20115;-66
2024/01/31 13:36:28;;;;;;;14.52;9.20;;;;;;;;;;4983693;28;20411;-66
2024/01/31 13:38:55;;;;;;;14.57;9.52;;;;;;;;;;4980773;28;20514;-65
2024/01/31 13:41:22;;;;;;;14.57;8.60;;;;;;;;;;4984566;28;20754;-66
2024/01/31 13:43:49;;;;;;;13.90;9.57;;;;;;;;;;4984116;28;20046;-67
2024/01/31 13:46:15;;;;;;;16.83;9.25;;;;;;;;;;4986441;28;20062;-70
2024/01/31 13:48:42;;;;;;;13.70;8.57;;;;;;;;;;4977770;28;20045;-66
2024/01/31 13:51:09;;;;;;;16.77;9.60;;;;;;;;;;4986022;28;20778;-70
2024/01/31 13:53:36;;;;;;;15.23;9.40;;;;;;;;;;4976616;28;20100;-70
2024/01/31 13:56:02;;;;;;;15.88;9.85;;;;;;;;;;4976430;28;20058;-66
2024/01/31 13:58:28;;;;;;;15.27;9.93;;;;;;;;;;4985487;28;20046;-68
2024/01/31 14:00:55;;;;;;;17.58;9.75;;;;;;;;;;4986434;28;20267;-66
2024/01/31 14:03:21;;;;;;;17.98;10.05;;;;;;;;;;4985305;28;20422;-66
2024/01/31 14:05:47;;;;;;;21.00;9.65;;;;;;;;;;4976700;28;20048;-66
2024/01/31 14:08:13;;;;;;;16.00;10.02;;;;;;;;;;4985171;28;20047;-65
2024/01/31 14:10:39;;;;;;;18.20;9.27;;;;;;;;;;4978398;28;20042;-65
2024/01/31 14:13:06;;;;;;;15.32;10.00;;;;;;;;;;4985134;28;20529;-66
2024/01/31 14:15:33;;;;;;;17.10;10.90;;;;;;;;;;4985800;28;20054;-66
2024/01/31 14:17:59;;;;;;;14.38;9.98;;;;;;;;;;4987730;28;20038;-65
2024/01/31 14:20:25;;;;;;;20.77;11.27;;;;;;;;;;4979708;28;20348;-65
2024/01/31 14:22:54;;;;;;;19.15;10.63;;;;;;;;;;4988028;28;20046;-65
2024/01/31 14:25:21;;;;;;;17.42;10.48;;;;;;;;;;4984900;28;20105;-65
2024/01/31 14:27:47;;;;;;;19.35;10.93;;;;;;;;;;4984608;28;20125;-65
2024/01/31 14:30:13;;;;;;;19.15;11.82;;;;;;;;;;4987084;28;20064;-65
2024/01/31 14:32:39;;;;;;;15.10;10.50;;;;;;;;;;5001119;28;20477;-66